createdAt,value
2023-03-04T00:00:07.813Z,59.80
2023-03-04T00:05:33.813Z,67.20
2023-03-04T00:10:39.511Z,66.50
2023-03-04T00:15:45.091Z,59.40
2023-03-04T00:20:50.863Z,49.60
2023-03-04T00:25:55.176Z,51.10
2023-03-04T00:30:59.045Z,41.10
2023-03-04T00:36:03.716Z,41.40
2023-03-04T00:41:07.556Z,41.80
2023-03-04T00:46:11.229Z,36.40
2023-03-04T00:51:15.029Z,41.50
2023-03-04T00:56:19.415Z,42.50
2023-03-04T01:01:23.309Z,35.50
2023-03-04T01:06:29.010Z,33.20
2023-03-04T01:11:32.923Z,35.90
2023-03-04T01:16:36.941Z,38.20
2023-03-04T01:21:41.311Z,23.40
2023-03-04T01:26:45.153Z,39.00
2023-03-04T01:31:48.769Z,35.50
2023-03-04T01:36:52.497Z,35.10
2023-03-04T01:41:56.480Z,31.40
2023-03-04T01:47:01.511Z,32.70
2023-03-04T01:52:05.284Z,33.70
2023-03-04T01:57:26.672Z,38.80
2023-03-04T02:02:30.565Z,35.90
2023-03-04T02:07:34.504Z,33.90
2023-03-04T02:12:38.729Z,36.50
2023-03-04T02:17:42.724Z,37.80
2023-03-04T02:23:14.168Z,34.20
2023-03-04T02:28:17.912Z,37.50
2023-03-04T02:33:21.740Z,31.60
2023-03-04T02:38:25.667Z,38.20
2023-03-04T02:43:29.419Z,30.90
2023-03-04T02:48:33.500Z,31.20
2023-03-04T02:53:39.133Z,29.80
2023-03-04T02:58:43.338Z,28.90
2023-03-04T03:03:47.391Z,24.40
2023-03-04T03:08:51.273Z,30.70
2023-03-04T03:13:57.122Z,32.20
2023-03-04T03:19:01.810Z,30.50
2023-03-04T03:24:06.016Z,30.50
2023-03-04T03:29:09.750Z,33.10
2023-03-04T03:34:13.836Z,26.70
2023-03-04T03:39:18.636Z,30.70
2023-03-04T03:44:25.156Z,32.40
2023-03-04T03:49:28.869Z,27.70
2023-03-04T03:54:32.496Z,28.40
2023-03-04T03:59:36.427Z,32.80
2023-03-04T04:04:40.163Z,26.00
2023-03-04T04:09:44.973Z,30.90
2023-03-04T04:14:48.826Z,31.80
2023-03-04T04:19:52.527Z,34.80
2023-03-04T04:24:56.154Z,35.20
2023-03-04T04:30:00.195Z,36.80
2023-03-04T04:35:04.406Z,33.20
2023-03-04T04:40:08.915Z,37.50
2023-03-04T04:45:12.650Z,36.30
2023-03-04T04:50:16.642Z,37.60
2023-03-04T04:55:21.067Z,41.10
2023-03-04T05:00:25.221Z,33.60
2023-03-04T05:05:29.661Z,37.00
2023-03-04T05:10:34.406Z,41.80
2023-03-04T05:15:39.729Z,37.70
2023-03-04T05:20:43.688Z,35.40
2023-03-04T05:25:48.147Z,31.20
2023-03-04T05:30:51.897Z,28.40
2023-03-04T05:35:55.644Z,26.40
2023-03-04T05:41:04.732Z,26.40
2023-03-04T05:46:09.407Z,31.20
2023-03-04T05:51:13.326Z,28.30
2023-03-04T05:56:19.950Z,27.00
2023-03-04T06:01:24.100Z,26.40
2023-03-04T06:06:27.842Z,29.80
2023-03-04T06:11:31.675Z,31.40
2023-03-04T06:16:35.474Z,30.20
2023-03-04T06:21:39.321Z,25.40
2023-03-04T06:26:43.012Z,23.00
2023-03-04T06:31:46.829Z,25.10
2023-03-04T06:36:50.604Z,24.00
2023-03-04T06:41:54.283Z,27.70
2023-03-04T06:46:58.199Z,23.40
2023-03-04T06:52:02.653Z,27.80
2023-03-04T06:57:07.474Z,20.90
2023-03-04T07:02:13.136Z,24.90
2023-03-04T07:07:17.360Z,30.70
2023-03-04T07:12:21.095Z,26.60
2023-03-04T07:17:24.919Z,28.90
2023-03-04T07:22:28.624Z,23.40
2023-03-04T07:27:32.847Z,23.80
2023-03-04T07:32:36.575Z,25.20
2023-03-04T07:37:41.776Z,22.70
2023-03-04T07:42:50.867Z,21.80
2023-03-04T07:47:54.697Z,19.60
2023-03-04T07:52:58.541Z,19.10
2023-03-04T07:58:03.528Z,20.40
2023-03-04T08:03:07.462Z,20.50
2023-03-04T08:08:12.126Z,22.30
2023-03-04T08:13:16.323Z,22.90
2023-03-04T08:18:21.793Z,21.20
2023-03-04T08:23:28.564Z,17.00
2023-03-04T08:28:32.668Z,32.00
2023-03-04T08:33:37.996Z,27.20
2023-03-04T08:38:42.688Z,28.20
2023-03-04T08:43:47.483Z,28.80
2023-03-04T08:48:51.129Z,34.20
2023-03-04T08:53:54.921Z,24.10
2023-03-04T08:58:59.529Z,26.80
2023-03-04T09:04:03.123Z,26.10
2023-03-04T09:09:07.007Z,29.20
2023-03-04T09:14:10.783Z,23.20
2023-03-04T09:19:15.025Z,21.40
2023-03-04T09:24:18.550Z,18.80
2023-03-04T09:29:23.026Z,23.40
2023-03-04T09:34:27.965Z,19.10
2023-03-04T09:39:32.597Z,18.30
2023-03-04T09:44:43.822Z,22.70
2023-03-04T09:50:08.824Z,18.70
2023-03-04T09:55:36.938Z,20.10
2023-03-04T10:01:05.233Z,22.60
2023-03-04T10:06:13.852Z,18.10
2023-03-04T10:11:25.655Z,18.60
2023-03-04T10:16:53.922Z,16.00
2023-03-04T10:21:57.917Z,19.00
2023-03-04T10:27:07.722Z,14.00
2023-03-04T10:32:20.129Z,17.90
2023-03-04T10:37:23.978Z,14.70
2023-03-04T10:42:30.622Z,19.80
2023-03-04T10:47:35.687Z,16.30
2023-03-04T10:52:48.123Z,14.10
2023-03-04T10:57:57.796Z,14.80
2023-03-04T11:03:27.891Z,18.90
2023-03-04T11:08:33.011Z,12.70
2023-03-04T11:13:36.723Z,16.20
2023-03-04T11:18:53.878Z,13.30
2023-03-04T11:24:29.147Z,17.20
2023-03-04T11:29:40.061Z,12.80
2023-03-04T11:34:57.321Z,15.40
2023-03-04T11:40:40.337Z,11.60
2023-03-04T11:46:30.265Z,10.10
2023-03-04T11:52:03.557Z,12.90
2023-03-04T11:57:13.923Z,10.80
2023-03-04T12:02:23.160Z,10.00
2023-03-04T12:08:08.266Z,9.80
2023-03-04T12:13:50.807Z,13.30
2023-03-04T12:49:21.053Z,11.10
2023-03-04T13:00:36.332Z,12.40
2023-03-04T13:06:04.126Z,11.00
2023-03-04T13:11:26.578Z,10.90
2023-03-04T13:16:39.462Z,12.10
2023-03-04T13:21:50.093Z,13.30
2023-03-04T13:26:53.766Z,13.30
2023-03-04T13:32:00.640Z,10.20
2023-03-04T13:37:30.782Z,11.20
2023-03-04T13:42:45.213Z,9.60
2023-03-04T13:47:49.350Z,15.60
2023-03-04T13:52:54.441Z,9.20
2023-03-04T13:57:58.382Z,8.80
2023-03-04T14:03:18.585Z,7.70
2023-03-04T14:08:26.223Z,9.10
2023-03-04T14:13:30.103Z,10.10
2023-03-04T14:18:35.236Z,9.80
2023-03-04T14:23:39.264Z,12.30
2023-03-04T14:28:48.669Z,10.20
2023-03-04T14:34:00.276Z,9.40
2023-03-04T14:39:08.193Z,11.10
2023-03-04T14:44:36.329Z,9.90
2023-03-04T14:49:41.389Z,8.20
2023-03-04T14:55:01.762Z,8.10
2023-03-04T15:00:25.873Z,9.00
2023-03-04T15:05:50.022Z,13.80
2023-03-04T15:11:02.097Z,10.00
2023-03-04T15:16:07.594Z,7.00
2023-03-04T15:21:20.434Z,9.70
2023-03-04T15:26:26.044Z,11.10
2023-03-04T15:31:31.197Z,8.90
2023-03-04T15:36:35.047Z,11.50
2023-03-04T15:41:38.871Z,9.60
2023-03-04T15:46:43.147Z,12.20
2023-03-04T15:51:50.771Z,11.50
2023-03-04T15:56:59.191Z,10.80
2023-03-04T16:02:04.395Z,11.10
2023-03-04T16:07:08.324Z,11.10
2023-03-04T16:12:15.036Z,10.00
2023-03-04T16:17:20.419Z,10.20
2023-03-04T16:22:30.748Z,12.00
2023-03-04T16:27:38.535Z,11.20
2023-03-04T16:32:42.813Z,11.00
2023-03-04T16:37:48.195Z,9.60
2023-03-04T16:42:54.441Z,9.60
2023-03-04T16:47:58.817Z,11.60
2023-03-04T16:53:05.905Z,11.40
2023-03-04T16:58:10.470Z,9.40
2023-03-04T17:03:16.940Z,11.70
2023-03-04T17:08:23.139Z,10.00
2023-03-04T17:13:29.708Z,13.70
2023-03-04T17:18:36.118Z,11.00
2023-03-04T17:23:40.672Z,18.50
2023-03-04T17:28:46.152Z,13.70
2023-03-04T17:33:51.222Z,13.00
2023-03-04T17:38:57.528Z,9.70
2023-03-04T17:44:02.688Z,12.10
2023-03-04T17:49:07.367Z,10.70
2023-03-04T17:54:12.962Z,10.50
2023-03-04T17:59:20.457Z,16.10
2023-03-04T18:04:25.337Z,12.90
2023-03-04T18:09:29.957Z,12.60
2023-03-04T18:14:38.170Z,16.00
2023-03-04T18:19:43.983Z,15.10
2023-03-04T18:24:49.091Z,12.90
2023-03-04T18:29:55.355Z,16.20
2023-03-04T18:35:02.965Z,14.50
2023-03-04T18:40:09.721Z,18.20
2023-03-04T18:45:18.431Z,13.00
2023-03-04T18:50:26.247Z,19.40
2023-03-04T18:55:33.774Z,14.40
2023-03-04T19:00:41.176Z,17.40
2023-03-04T19:05:47.858Z,13.70
2023-03-04T19:10:53.408Z,13.80
2023-03-04T19:16:00.406Z,9.60
2023-03-04T19:28:20.045Z,11.70
2023-03-04T19:33:28.428Z,10.50
2023-03-04T19:38:37.321Z,12.10
2023-03-04T19:43:44.875Z,9.90
2023-03-04T19:48:55.849Z,8.50
2023-03-04T20:00:38.083Z,6.90
2023-03-04T20:05:47.592Z,9.10
2023-03-04T20:10:55.671Z,9.20
2023-03-04T20:16:04.273Z,8.00
2023-03-04T20:21:13.285Z,7.90
2023-03-04T20:26:23.173Z,7.10
2023-03-04T20:31:32.393Z,10.90
2023-03-04T20:36:39.730Z,9.20
2023-03-04T20:41:46.616Z,9.80
2023-03-04T20:46:52.838Z,6.40
2023-03-04T20:52:03.867Z,9.20
2023-03-04T20:57:11.081Z,7.70
2023-03-04T21:02:19.026Z,10.20
2023-03-04T21:07:25.337Z,5.70
2023-03-04T21:12:30.683Z,5.80
2023-03-04T21:17:35.348Z,10.30
2023-03-04T21:22:40.028Z,6.40
2023-03-04T21:27:46.553Z,8.20
2023-03-04T21:32:51.666Z,5.90
2023-03-04T21:37:57.334Z,7.90
2023-03-04T21:43:02.295Z,9.90
2023-03-04T21:48:08.902Z,9.70
2023-03-04T21:53:13.408Z,7.20
2023-03-04T21:58:18.109Z,6.90
2023-03-04T22:03:23.563Z,8.50
2023-03-04T22:08:28.246Z,24.60
2023-03-04T22:13:33.746Z,7.40
2023-03-04T22:18:41.665Z,9.60
2023-03-04T22:23:47.161Z,8.60
2023-03-04T22:28:50.966Z,9.90
2023-03-04T22:33:54.924Z,10.80
2023-03-04T22:38:58.897Z,8.20
2023-03-04T22:44:06.419Z,9.80
2023-03-04T22:49:13.510Z,9.40
2023-03-04T22:54:19.041Z,9.10
2023-03-04T22:59:23.346Z,9.80
2023-03-04T23:04:27.883Z,10.60
2023-03-04T23:09:32.321Z,9.80
2023-03-04T23:14:37.776Z,12.50
2023-03-04T23:19:41.579Z,10.20
2023-03-04T23:24:45.368Z,9.90
2023-03-04T23:29:50.294Z,10.50
2023-03-04T23:34:55.752Z,11.30
2023-03-04T23:39:59.329Z,11.70
2023-03-04T23:45:06.145Z,13.30
2023-03-04T23:50:12.502Z,11.60
2023-03-04T23:55:20.400Z,11.20
